createdAt,value
2024-04-16T00:00:41.835Z,96789.69
2024-04-16T00:01:46.789Z,96790.53
2024-04-16T00:02:49.033Z,96788.91
2024-04-16T00:03:51.487Z,96780.44
2024-04-16T00:04:56.414Z,96790.88
2024-04-16T00:06:01.511Z,96784.03
2024-04-16T00:07:03.931Z,96783.25
2024-04-16T00:08:09.099Z,96781.59
2024-04-16T00:09:11.659Z,96776.38
2024-04-16T00:10:14.349Z,96775.22
2024-04-16T00:11:16.659Z,96776.22
2024-04-16T00:12:21.750Z,96760.56
2024-04-16T00:13:44.144Z,96774.06
2024-04-16T00:14:59.408Z,96766.06
2024-04-16T00:16:06.270Z,96770.09
2024-04-16T00:17:10.319Z,96757.88
2024-04-16T00:18:12.725Z,96765.34
2024-04-16T00:19:15.128Z,96766.16
2024-04-16T00:20:20.436Z,96768.59
2024-04-16T00:21:25.704Z,96762.38
2024-04-16T00:22:28.438Z,96759.75
2024-04-16T00:23:30.897Z,96765.00
2024-04-16T00:24:35.883Z,96773.81
2024-04-16T00:25:38.167Z,96778.22
2024-04-16T00:26:40.670Z,96785.25
2024-04-16T00:27:43.706Z,96773.19
2024-04-16T00:28:48.896Z,96780.03
2024-04-16T00:29:51.094Z,96780.03
2024-04-16T00:30:53.291Z,96790.28
2024-04-16T00:31:55.467Z,96802.19
2024-04-16T00:33:07.789Z,96807.22
2024-04-16T00:34:09.983Z,96805.25
2024-04-16T00:35:12.403Z,96802.47
2024-04-16T00:36:14.448Z,96802.09
2024-04-16T00:37:23.537Z,96802.56
2024-04-16T00:38:25.890Z,96792.91
2024-04-16T00:39:28.112Z,96798.78
2024-04-16T00:40:30.296Z,96797.81
2024-04-16T00:41:35.206Z,96794.81
2024-04-16T00:42:37.536Z,96794.47
2024-04-16T00:43:39.952Z,96789.88
2024-04-16T00:44:45.296Z,96794.94
2024-04-16T00:45:50.848Z,96791.16
2024-04-16T00:46:52.932Z,96791.78
2024-04-16T00:47:55.571Z,96794.41
2024-04-16T00:49:00.606Z,96785.59
2024-04-16T00:50:03.246Z,96786.38
2024-04-16T00:51:05.917Z,96794.22
2024-04-16T00:52:08.155Z,96795.84
2024-04-16T00:53:16.229Z,96794.84
2024-04-16T00:54:18.688Z,96793.03
2024-04-16T00:55:21.246Z,96794.69
2024-04-16T00:56:23.884Z,96793.69
2024-04-16T00:57:28.984Z,96788.28
2024-04-16T00:58:33.386Z,96792.50
2024-04-16T00:59:35.885Z,96791.69
2024-04-16T01:00:37.988Z,96798.53
2024-04-16T01:01:43.424Z,96794.13
2024-04-16T01:02:45.700Z,96791.50
2024-04-16T01:03:47.755Z,96782.88
2024-04-16T01:04:50.013Z,96782.88
2024-04-16T01:05:58.165Z,96781.06
2024-04-16T01:07:00.930Z,96780.91
2024-04-16T01:08:03.488Z,96782.53
2024-04-16T01:09:11.472Z,96788.22
2024-04-16T01:10:17.353Z,96783.78
2024-04-16T01:11:23.830Z,96780.19
2024-04-16T01:12:26.028Z,96772.97
2024-04-16T01:13:28.426Z,96774.44
2024-04-16T01:14:33.335Z,96769.81
2024-04-16T01:15:35.576Z,96771.28
2024-04-16T01:16:37.892Z,96768.66
2024-04-16T01:17:41.407Z,96757.84
2024-04-16T01:18:46.801Z,96753.88
2024-04-16T01:19:49.025Z,96752.53
2024-04-16T01:20:51.591Z,96746.94
2024-04-16T01:21:53.799Z,96737.13
2024-04-16T01:23:01.471Z,96730.91
2024-04-16T01:24:03.712Z,96733.50
2024-04-16T01:25:06.494Z,96731.69
2024-04-16T01:26:08.703Z,96735.94
2024-04-16T01:27:13.348Z,96732.34
2024-04-16T01:28:15.565Z,96737.38
2024-04-16T01:29:17.812Z,96732.78
2024-04-16T01:30:22.589Z,96740.81
2024-04-16T01:31:25.052Z,96745.22
2024-04-16T01:32:27.419Z,96741.00
2024-04-16T01:33:32.484Z,96740.19
2024-04-16T01:34:35.503Z,96743.97
2024-04-16T01:35:37.648Z,96734.31
2024-04-16T01:36:42.474Z,96738.72
2024-04-16T01:37:44.534Z,96729.28
2024-04-16T01:38:49.415Z,96733.69
2024-04-16T01:39:54.410Z,96734.69
2024-04-16T01:40:56.818Z,96741.69
2024-04-16T01:41:59.001Z,96742.34
2024-04-16T01:43:03.776Z,96749.38
2024-04-16T01:44:06.032Z,96748.56
2024-04-16T01:45:10.526Z,96744.50
2024-04-16T01:46:15.543Z,96742.69
2024-04-16T01:47:17.976Z,96730.44
2024-04-16T01:48:20.227Z,96727.03
2024-04-16T01:49:22.448Z,96735.50
2024-04-16T01:50:27.304Z,96742.53
2024-04-16T01:51:29.559Z,96731.91
2024-04-16T01:52:31.856Z,96738.72
2024-04-16T01:53:37.430Z,96738.13
2024-04-16T01:54:42.210Z,96737.13
2024-04-16T01:55:44.388Z,96728.63
2024-04-16T01:56:47.088Z,96720.78
2024-04-16T01:57:52.756Z,96733.06
2024-04-16T01:58:55.024Z,96726.22
2024-04-16T01:59:57.207Z,96722.19
2024-04-16T02:01:00.256Z,96724.16
2024-04-16T02:02:05.951Z,96721.72
2024-04-16T02:03:08.473Z,96733.97
2024-04-16T02:04:10.986Z,96725.16
2024-04-16T02:05:14.011Z,96740.63
2024-04-16T02:06:19.122Z,96749.91
2024-04-16T02:07:21.523Z,96748.72
2024-04-16T02:08:24.102Z,96745.75
2024-04-16T02:09:26.298Z,96745.22
2024-04-16T02:10:33.874Z,96748.09
2024-04-16T02:11:36.000Z,96762.25
2024-04-16T02:12:38.113Z,96759.06
2024-04-16T02:13:42.954Z,96752.50
2024-04-16T02:14:45.627Z,96759.59
2024-04-16T02:15:47.798Z,96763.28
2024-04-16T02:16:52.867Z,96773.19
2024-04-16T02:17:55.376Z,96773.59
2024-04-16T02:18:57.680Z,96765.22
2024-04-16T02:19:59.896Z,96780.38
2024-04-16T02:21:04.709Z,96777.22
2024-04-16T02:22:06.828Z,96784.72
2024-04-16T02:23:09.447Z,96781.72
2024-04-16T02:24:11.538Z,96781.53
2024-04-16T02:25:13.676Z,96775.31
2024-04-16T02:26:21.097Z,96777.72
2024-04-16T02:27:23.358Z,96777.13
2024-04-16T02:28:25.599Z,96772.84
2024-04-16T02:29:31.248Z,96765.41
2024-04-16T02:30:35.099Z,96766.56
2024-04-16T02:31:37.308Z,96765.16
2024-04-16T02:32:39.803Z,96750.63
2024-04-16T02:33:44.764Z,96763.69
2024-04-16T02:34:46.911Z,96757.00
2024-04-16T02:35:49.108Z,96754.75
2024-04-16T02:36:51.224Z,96754.94
2024-04-16T02:37:56.471Z,96757.75
2024-04-16T02:38:58.751Z,96762.34
2024-04-16T02:40:01.000Z,96756.50
2024-04-16T02:41:03.329Z,96757.84
2024-04-16T02:42:10.810Z,96754.78
2024-04-16T02:43:12.985Z,96746.53
2024-04-16T02:44:15.102Z,96746.47
2024-04-16T02:45:17.427Z,96735.56
2024-04-16T02:46:22.730Z,96740.97
2024-04-16T02:47:24.924Z,96735.28
2024-04-16T02:48:27.165Z,96741.53
2024-04-16T02:49:29.501Z,96735.03
2024-04-16T02:50:31.730Z,96734.38
2024-04-16T02:51:36.491Z,96741.63
2024-04-16T02:52:38.806Z,96738.38
2024-04-16T02:53:41.056Z,96733.50
2024-04-16T02:54:43.349Z,96729.47
2024-04-16T02:55:48.070Z,96724.78
2024-04-16T02:56:50.318Z,96724.53
2024-04-16T02:57:55.042Z,96730.09
2024-04-16T02:58:57.207Z,96738.13
2024-04-16T03:00:01.947Z,96760.19
2024-04-16T03:01:05.477Z,96757.75
2024-04-16T03:02:08.200Z,96766.78
2024-04-16T03:03:12.027Z,96748.84
2024-04-16T03:04:16.887Z,96751.47
2024-04-16T03:05:19.393Z,96751.00
2024-04-16T03:06:21.618Z,96740.94
2024-04-16T03:07:24.134Z,96736.25
2024-04-16T03:08:28.947Z,96736.41
2024-04-16T03:09:30.943Z,96741.34
2024-04-16T03:10:33.232Z,96749.56
2024-04-16T03:11:38.120Z,96752.69
2024-04-16T03:12:40.147Z,96751.28
2024-04-16T03:13:45.594Z,96761.25
2024-04-16T03:14:47.782Z,96751.34
2024-04-16T03:15:52.531Z,96760.31
2024-04-16T03:16:54.762Z,96754.66
2024-04-16T03:17:57.008Z,96754.81
2024-04-16T03:19:00.439Z,96766.44
2024-04-16T03:20:05.485Z,96760.94
2024-04-16T03:21:07.676Z,96765.53
2024-04-16T03:22:10.678Z,96765.06
2024-04-16T03:23:13.033Z,96771.44
2024-04-16T03:24:17.811Z,96757.78
2024-04-16T03:25:20.121Z,96759.28
2024-04-16T03:26:22.306Z,96754.25
2024-04-16T03:27:24.440Z,96756.22
2024-04-16T03:28:29.189Z,96752.00
2024-04-16T03:29:33.872Z,96764.56
2024-04-16T03:30:36.121Z,96771.13
2024-04-16T03:31:38.820Z,96779.25
2024-04-16T03:32:43.689Z,96778.66
2024-04-16T03:33:45.795Z,96780.78
2024-04-16T03:34:47.930Z,96787.13
2024-04-16T03:35:56.470Z,96782.28
2024-04-16T03:37:02.008Z,96780.66
2024-04-16T03:38:04.639Z,96783.28
2024-04-16T03:39:06.852Z,96789.44
2024-04-16T03:40:13.111Z,96793.84
2024-04-16T03:41:15.356Z,96803.47
2024-04-16T03:42:17.597Z,96807.09
2024-04-16T03:43:22.373Z,96807.88
2024-04-16T03:44:24.577Z,96807.88
2024-04-16T03:45:29.425Z,96804.28
2024-04-16T03:46:34.321Z,96815.53
2024-04-16T03:47:36.602Z,96811.97
2024-04-16T03:48:38.850Z,96812.59
2024-04-16T03:49:43.650Z,96815.00
2024-04-16T03:50:45.881Z,96822.69
2024-04-16T03:51:48.021Z,96815.50
2024-04-16T03:52:50.156Z,96812.56
2024-04-16T03:53:55.137Z,96824.13
2024-04-16T03:54:57.484Z,96814.94
2024-04-16T03:56:01.334Z,96824.22
2024-04-16T03:57:04.165Z,96826.50
2024-04-16T03:58:09.522Z,96826.50
2024-04-16T03:59:26.776Z,96846.38
2024-04-16T04:00:50.215Z,96862.38
2024-04-16T04:01:55.009Z,96854.91
2024-04-16T04:03:00.656Z,96849.22
2024-04-16T04:04:02.964Z,96840.25
2024-04-16T04:05:08.475Z,96858.22
2024-04-16T04:06:11.572Z,96853.50
2024-04-16T04:07:13.875Z,96842.59
2024-04-16T04:08:18.989Z,96842.31
2024-04-16T04:09:21.696Z,96835.78
2024-04-16T04:10:23.884Z,96822.47
2024-04-16T04:11:26.556Z,96818.75
2024-04-16T04:12:31.559Z,96828.72
2024-04-16T04:13:33.928Z,96832.84
2024-04-16T04:14:36.325Z,96838.56
2024-04-16T04:15:43.609Z,96843.28
2024-04-16T04:17:13.545Z,96850.78
2024-04-16T04:18:15.921Z,96862.53
2024-04-16T04:19:21.540Z,96880.47
2024-04-16T04:20:23.833Z,96887.81
2024-04-16T04:21:28.934Z,96889.13
2024-04-16T04:22:34.410Z,96894.50
2024-04-16T04:23:36.693Z,96900.03
2024-04-16T04:24:43.473Z,96901.34
2024-04-16T04:26:14.492Z,96913.88
2024-04-16T04:27:56.225Z,96908.69
2024-04-16T04:28:58.397Z,96916.66
2024-04-16T04:30:00.939Z,96904.00
2024-04-16T04:31:17.901Z,96912.94
2024-04-16T04:33:39.033Z,96909.19
2024-04-16T04:34:42.828Z,96906.78
2024-04-16T04:35:47.706Z,96910.50
2024-04-16T04:36:53.211Z,96912.47
2024-04-16T04:38:02.724Z,96922.22
2024-04-16T04:39:07.756Z,96922.41
2024-04-16T04:40:12.474Z,96938.03
2024-04-16T04:41:14.832Z,96944.22
2024-04-16T04:42:17.296Z,96958.22
2024-04-16T04:43:22.237Z,96958.22
2024-04-16T04:44:27.506Z,96961.75
2024-04-16T04:45:29.897Z,96957.72
2024-04-16T04:46:37.376Z,96955.28
2024-04-16T04:47:39.835Z,96942.88
2024-04-16T04:48:42.432Z,96956.25
2024-04-16T04:49:44.945Z,96946.97
2024-04-16T04:50:49.839Z,96936.22
2024-04-16T04:51:52.180Z,96934.59
2024-04-16T04:52:54.581Z,96937.38
2024-04-16T04:53:56.776Z,96930.03
2024-04-16T04:55:07.503Z,96948.44
2024-04-16T04:56:12.448Z,96960.78
2024-04-16T04:57:14.626Z,96976.41
2024-04-16T04:58:16.890Z,96988.59
2024-04-16T04:59:21.997Z,97002.91
2024-04-16T05:00:24.288Z,97006.16
2024-04-16T05:01:26.926Z,97000.16
2024-04-16T05:02:34.524Z,97006.16
2024-04-16T05:03:36.997Z,97012.34
2024-04-16T05:04:40.731Z,97012.50
2024-04-16T05:05:46.665Z,97007.63
2024-04-16T05:06:51.547Z,97016.41
2024-04-16T05:07:53.847Z,97026.81
2024-04-16T05:08:56.506Z,97025.03
2024-04-16T05:09:58.765Z,97021.63
2024-04-16T05:11:03.652Z,97021.91
2024-04-16T05:12:06.156Z,97025.50
2024-04-16T05:13:08.244Z,97021.09
2024-04-16T05:14:12.691Z,97015.41
2024-04-16T05:15:21.254Z,97023.19
2024-04-16T05:16:24.307Z,97026.94
2024-04-16T05:17:27.671Z,97027.09
2024-04-16T05:18:33.550Z,97024.16
2024-04-16T05:19:38.887Z,97025.78
2024-04-16T05:20:41.257Z,97026.63
2024-04-16T05:21:43.624Z,97016.34
2024-04-16T05:23:08.090Z,97017.19
2024-04-16T05:24:16.854Z,97013.91
2024-04-16T05:25:18.988Z,97018.47
2024-04-16T05:26:28.162Z,97014.25
2024-04-16T05:27:32.602Z,97012.59
2024-04-16T05:28:35.045Z,97012.75
2024-04-16T05:29:39.971Z,97003.00
2024-04-16T05:30:42.310Z,97000.00
2024-04-16T05:31:44.649Z,97014.13
2024-04-16T05:32:49.779Z,97012.00
2024-04-16T05:33:55.538Z,97013.31
2024-04-16T05:34:57.884Z,97011.66
2024-04-16T05:36:05.436Z,97011.00
2024-04-16T05:37:12.233Z,97021.72
2024-04-16T05:38:14.865Z,97014.22
2024-04-16T05:39:17.360Z,97025.91
2024-04-16T05:40:22.113Z,97027.03
2024-04-16T05:41:27.444Z,97021.34
2024-04-16T05:42:30.125Z,97032.84
2024-04-16T05:43:36.289Z,97026.34
2024-04-16T05:44:38.719Z,97020.63
2024-04-16T05:45:41.554Z,97013.00
2024-04-16T05:46:45.760Z,97014.78
2024-04-16T05:47:51.272Z,97015.06
2024-04-16T05:49:00.159Z,97011.16
2024-04-16T05:50:08.367Z,97023.16
2024-04-16T05:51:10.813Z,97024.81
2024-04-16T05:52:15.943Z,97018.31
2024-04-16T05:53:51.894Z,97017.09
2024-04-16T05:54:54.699Z,97024.78
2024-04-16T05:55:59.654Z,97020.75
2024-04-16T05:57:08.205Z,97022.22
2024-04-16T05:58:31.796Z,97029.19
2024-04-16T05:59:37.639Z,97033.75
2024-04-16T06:00:40.003Z,97030.47
2024-04-16T06:01:45.192Z,97023.81
2024-04-16T06:02:47.489Z,97036.63
2024-04-16T06:03:52.269Z,97040.50
2024-04-16T06:04:57.312Z,97023.88
2024-04-16T06:06:02.100Z,97000.47
2024-04-16T06:07:07.501Z,96998.00
2024-04-16T06:08:12.850Z,96987.94
2024-04-16T06:09:15.022Z,96985.16
2024-04-16T06:10:20.002Z,96997.19
2024-04-16T06:11:25.192Z,97026.75
2024-04-16T06:14:14.813Z,97084.53
2024-04-16T06:15:20.817Z,97080.59
2024-04-16T06:16:23.093Z,97079.94
2024-04-16T06:17:25.306Z,97078.44
2024-04-16T06:18:35.609Z,97093.53
2024-04-16T06:19:38.864Z,97078.53
2024-04-16T06:20:44.134Z,97073.66
2024-04-16T06:22:12.687Z,97075.72
2024-04-16T06:23:23.444Z,97060.59
2024-04-16T06:24:25.819Z,97058.31
2024-04-16T06:25:28.386Z,97052.44
2024-04-16T06:26:34.815Z,97051.94
2024-04-16T06:27:37.111Z,97066.72
2024-04-16T06:28:39.475Z,97065.06
2024-04-16T06:29:44.622Z,97090.09
2024-04-16T06:30:47.636Z,97101.13
2024-04-16T06:31:50.191Z,97094.16
2024-04-16T06:32:58.320Z,97085.59
2024-04-16T06:34:02.625Z,97080.19
2024-04-16T06:35:05.901Z,97072.78
2024-04-16T06:36:13.985Z,97073.41
2024-04-16T06:37:18.550Z,97075.66
2024-04-16T06:39:00.630Z,97082.16
2024-04-16T06:40:05.681Z,97085.47
2024-04-16T06:41:08.207Z,97095.59
2024-04-16T06:42:14.787Z,97111.03
2024-04-16T06:43:18.968Z,97118.25
2024-04-16T06:44:26.443Z,97126.69
2024-04-16T06:45:28.630Z,97133.53
2024-04-16T06:46:30.936Z,97124.72
2024-04-16T06:47:36.118Z,97112.88
2024-04-16T06:48:39.301Z,97122.94
2024-04-16T06:49:41.876Z,97126.81
2024-04-16T06:50:49.507Z,97135.09
2024-04-16T06:51:54.936Z,97122.41
2024-04-16T06:53:11.076Z,97119.13
2024-04-16T06:54:16.070Z,97123.34
2024-04-16T06:55:21.054Z,97119.28
2024-04-16T06:56:23.311Z,97127.56
2024-04-16T06:57:25.682Z,97132.25
2024-04-16T06:58:28.150Z,97139.41
2024-04-16T06:59:33.329Z,97145.13
2024-04-16T07:00:38.160Z,97142.88
2024-04-16T07:03:43.982Z,97137.09
2024-04-16T07:04:47.038Z,97136.78
2024-04-16T07:05:49.455Z,97127.38
2024-04-16T07:07:00.680Z,97117.00
2024-04-16T07:08:04.718Z,97099.28
2024-04-16T07:09:09.183Z,97086.13
2024-04-16T07:10:12.412Z,97076.84
2024-04-16T07:11:18.117Z,97079.00
2024-04-16T07:12:20.319Z,97072.16
2024-04-16T07:13:22.445Z,97078.50
2024-04-16T07:14:24.702Z,97075.75
2024-04-16T07:15:46.690Z,97095.91
2024-04-16T07:16:49.132Z,97110.75
2024-04-16T07:17:51.900Z,97107.47
2024-04-16T07:19:12.839Z,97098.69
2024-04-16T07:20:18.691Z,97091.78
2024-04-16T07:21:31.021Z,97092.91
2024-04-16T07:22:42.509Z,97087.16
2024-04-16T07:23:44.786Z,97084.84
2024-04-16T07:24:56.208Z,97089.06
2024-04-16T07:26:07.537Z,97090.84
2024-04-16T07:27:09.999Z,97088.84
2024-04-16T07:28:14.475Z,97086.75
2024-04-16T07:29:22.756Z,97082.31
2024-04-16T07:30:35.819Z,97085.66
2024-04-16T07:31:44.814Z,97083.03
2024-04-16T07:32:52.736Z,97075.66
2024-04-16T07:33:55.692Z,97085.94
2024-04-16T07:34:58.475Z,97097.38
2024-04-16T07:36:00.950Z,97100.91
2024-04-16T07:37:05.817Z,97102.69
2024-04-16T07:38:10.647Z,97107.69
2024-04-16T07:39:12.866Z,97104.13
2024-04-16T07:40:17.930Z,97095.66
2024-04-16T07:41:20.829Z,97101.19
2024-04-16T07:42:23.120Z,97111.63
2024-04-16T07:43:25.449Z,97109.44
2024-04-16T07:44:30.368Z,97118.81
2024-04-16T07:45:32.593Z,97126.75
2024-04-16T07:46:35.061Z,97117.53
2024-04-16T07:47:37.976Z,97115.47
2024-04-16T07:48:43.229Z,97119.78
2024-04-16T07:49:45.414Z,97121.31
2024-04-16T07:50:50.024Z,97107.75
2024-04-16T07:51:59.734Z,97112.50
2024-04-16T07:53:07.950Z,97102.06
2024-04-16T07:54:12.813Z,97100.63
2024-04-16T07:55:17.561Z,97101.44
2024-04-16T07:56:27.133Z,97120.31
2024-04-16T07:57:32.037Z,97132.06
2024-04-16T07:58:34.409Z,97121.31
2024-04-16T07:59:36.850Z,97132.22
2024-04-16T08:00:40.995Z,97134.31
2024-04-16T08:01:46.059Z,97137.25
2024-04-16T08:02:48.772Z,97140.19
2024-04-16T08:03:59.916Z,97149.66
2024-04-16T08:05:07.879Z,97139.84
2024-04-16T08:06:14.936Z,97143.63
2024-04-16T08:07:17.137Z,97150.97
2024-04-16T08:08:26.288Z,97143.16
2024-04-16T08:09:41.584Z,97144.81
2024-04-16T08:10:44.021Z,97144.94
2024-04-16T08:11:46.239Z,97140.22
2024-04-16T08:12:51.060Z,97131.94
2024-04-16T08:13:54.685Z,97124.91
2024-04-16T08:14:56.884Z,97114.31
2024-04-16T08:15:59.301Z,97105.03
2024-04-16T08:17:05.155Z,97103.72
2024-04-16T08:18:07.858Z,97103.91
2024-04-16T08:19:10.083Z,97103.09
2024-04-16T08:20:16.725Z,97105.19
2024-04-16T08:21:19.592Z,97100.94
2024-04-16T08:22:21.960Z,97109.56
2024-04-16T08:23:24.256Z,97119.84
2024-04-16T08:24:33.085Z,97124.88
2024-04-16T08:25:37.999Z,97135.81
2024-04-16T08:26:40.738Z,97140.84
2024-04-16T08:27:43.298Z,97132.84
2024-04-16T08:28:49.392Z,97140.84
2024-04-16T08:29:53.168Z,97135.00
2024-04-16T08:30:55.702Z,97137.75
2024-04-16T08:32:00.563Z,97138.41
2024-04-16T08:33:02.768Z,97144.75
2024-04-16T08:34:06.199Z,97149.50
2024-04-16T08:35:15.834Z,97150.97
2024-04-16T08:36:18.403Z,97141.69
2024-04-16T08:37:20.699Z,97144.63
2024-04-16T08:38:23.015Z,97138.25
2024-04-16T08:39:27.908Z,97138.09
2024-04-16T08:40:30.367Z,97149.19
2024-04-16T08:41:36.679Z,97143.00
2024-04-16T08:42:41.435Z,97144.44
2024-04-16T08:43:43.741Z,97159.94
2024-04-16T08:44:46.348Z,97157.81
2024-04-16T08:45:48.699Z,97158.28
2024-04-16T08:46:54.305Z,97151.59
2024-04-16T08:47:57.749Z,97152.72
2024-04-16T08:49:00.998Z,97163.28
2024-04-16T08:50:07.929Z,97161.47
2024-04-16T08:51:10.258Z,97163.25
2024-04-16T08:52:12.693Z,97169.09
2024-04-16T08:53:15.053Z,97175.56
2024-04-16T08:54:20.648Z,97175.91
2024-04-16T08:55:23.438Z,97180.28
2024-04-16T08:56:26.728Z,97176.72
2024-04-16T08:57:31.711Z,97181.09
2024-04-16T08:58:36.767Z,97176.53
2024-04-16T08:59:38.940Z,97162.56
2024-04-16T09:00:41.616Z,97163.38
2024-04-16T09:01:46.921Z,97157.22
2024-04-16T09:02:51.792Z,97143.03
2024-04-16T09:03:57.485Z,97139.78
2024-04-16T09:05:00.648Z,97139.78
2024-04-16T09:06:04.898Z,97147.91
2024-04-16T09:07:11.331Z,97151.50
2024-04-16T09:08:13.969Z,97153.94
2024-04-16T09:09:16.186Z,97145.13
2024-04-16T09:10:21.091Z,97139.13
2024-04-16T09:11:26.313Z,97140.44
2024-04-16T09:12:31.759Z,97136.56
2024-04-16T09:13:41.163Z,97138.53
2024-04-16T09:14:43.512Z,97146.66
2024-04-16T09:15:48.384Z,97147.50
2024-04-16T09:16:50.691Z,97147.84
2024-04-16T09:17:56.721Z,97164.81
2024-04-16T09:19:09.617Z,97174.09
2024-04-16T09:20:15.327Z,97175.09
2024-04-16T09:21:17.920Z,97169.53
2024-04-16T09:22:26.073Z,97159.13
2024-04-16T09:23:28.534Z,97163.19
2024-04-16T09:24:30.812Z,97153.25
2024-04-16T09:25:35.992Z,97153.41
2024-04-16T09:26:40.694Z,97150.97
2024-04-16T09:27:47.116Z,97151.44
2024-04-16T09:28:50.335Z,97147.41
2024-04-16T09:29:57.934Z,97149.16
2024-04-16T09:31:00.600Z,97157.97
2024-04-16T09:32:04.434Z,97163.38
2024-04-16T09:33:12.002Z,97161.22
2024-04-16T09:34:15.905Z,97164.84
2024-04-16T09:35:26.080Z,97165.31
2024-04-16T09:36:28.421Z,97169.19
2024-04-16T09:37:30.856Z,97160.22
2024-04-16T09:38:45.520Z,97157.38
2024-04-16T09:39:49.808Z,97149.41
2024-04-16T09:40:53.774Z,97153.31
2024-04-16T09:41:59.001Z,97167.00
2024-04-16T09:43:06.202Z,97167.69
2024-04-16T09:44:10.457Z,97176.31
2024-04-16T09:45:15.765Z,97162.78
2024-04-16T09:46:18.925Z,97165.56
2024-04-16T09:47:22.106Z,97157.06
2024-04-16T09:48:25.653Z,97156.44
2024-04-16T09:49:36.838Z,97148.44
2024-04-16T09:50:55.968Z,97156.13
2024-04-16T09:52:03.354Z,97158.53
2024-04-16T09:53:08.315Z,97149.56
2024-04-16T09:54:13.363Z,97142.19
2024-04-16T09:55:16.668Z,97141.22
2024-04-16T09:56:24.913Z,97149.03
2024-04-16T09:57:29.317Z,97151.00
2024-04-16T09:58:35.186Z,97156.69
2024-04-16T09:59:39.136Z,97168.09
2024-04-16T10:00:44.167Z,97157.13
2024-04-16T10:01:46.534Z,97179.47
2024-04-16T10:02:49.290Z,97173.03
2024-04-16T10:03:52.592Z,97169.91
2024-04-16T10:04:57.766Z,97172.19
2024-04-16T10:06:00.359Z,97166.13
2024-04-16T10:07:02.741Z,97166.31
2024-04-16T10:08:05.730Z,97165.81
2024-04-16T10:09:10.827Z,97172.28
2024-04-16T10:10:13.728Z,97182.09
2024-04-16T10:11:22.346Z,97178.59
2024-04-16T10:12:31.647Z,97165.50
2024-04-16T10:13:42.179Z,97165.00
2024-04-16T10:14:44.861Z,97173.38
2024-04-16T10:15:47.346Z,97170.47
2024-04-16T10:16:52.932Z,97177.81
2024-04-16T10:17:57.569Z,97170.84
2024-04-16T10:18:59.867Z,97174.16
2024-04-16T10:20:13.951Z,97176.47
2024-04-16T10:21:25.053Z,97178.13
2024-04-16T10:22:44.639Z,97176.56
2024-04-16T10:24:03.365Z,97175.63
2024-04-16T10:25:06.324Z,97166.19
2024-04-16T10:26:08.745Z,97166.06
2024-04-16T10:27:10.993Z,97179.28
2024-04-16T10:28:25.681Z,97179.63
2024-04-16T10:29:34.070Z,97173.63
2024-04-16T10:30:37.152Z,97179.34
2024-04-16T10:31:40.532Z,97178.69
2024-04-16T10:32:48.799Z,97171.50
2024-04-16T10:33:51.105Z,97172.16
2024-04-16T10:35:00.441Z,97170.53
2024-04-16T10:36:08.503Z,97166.25
2024-04-16T10:37:10.855Z,97167.56
2024-04-16T10:38:13.274Z,97170.66
2024-04-16T10:39:15.830Z,97175.88
2024-04-16T10:40:29.751Z,97157.06
2024-04-16T10:41:32.720Z,97160.34
2024-04-16T10:42:37.469Z,97158.22
2024-04-16T10:43:42.755Z,97166.19
2024-04-16T10:44:48.234Z,97147.06
2024-04-16T10:45:50.743Z,97154.69
2024-04-16T10:46:54.997Z,97154.16
2024-04-16T10:48:01.858Z,97162.41
2024-04-16T10:49:04.649Z,97153.19
2024-04-16T10:50:08.393Z,97147.41
2024-04-16T10:51:12.758Z,97141.41
2024-04-16T10:52:17.450Z,97145.25
2024-04-16T10:53:20.942Z,97159.41
2024-04-16T10:54:23.116Z,97155.72
2024-04-16T10:55:28.176Z,97153.13
2024-04-16T10:56:30.384Z,97148.88
2024-04-16T10:57:32.520Z,97125.53
2024-04-16T10:58:35.316Z,97156.38
2024-04-16T10:59:48.615Z,97165.56
2024-04-16T11:00:58.819Z,97155.81
2024-04-16T11:02:02.519Z,97156.53
2024-04-16T11:03:08.304Z,97165.16
2024-04-16T11:04:12.058Z,97163.81
2024-04-16T11:05:19.267Z,97153.81
2024-04-16T11:06:24.516Z,97147.06
2024-04-16T11:07:26.847Z,97146.69
2024-04-16T11:08:29.104Z,97152.19
2024-04-16T11:09:31.261Z,97153.69
2024-04-16T11:10:36.520Z,97148.88
2024-04-16T11:11:39.807Z,97148.81
2024-04-16T11:12:42.128Z,97152.94
2024-04-16T11:13:47.076Z,97153.31
2024-04-16T11:14:49.364Z,97152.50
2024-04-16T11:15:52.805Z,97144.91
2024-04-16T11:17:00.312Z,97142.97
2024-04-16T11:18:02.641Z,97140.63
2024-04-16T11:19:04.904Z,97148.81
2024-04-16T11:20:09.422Z,97137.41
2024-04-16T11:21:14.433Z,97139.03
2024-04-16T11:22:16.920Z,97132.78
2024-04-16T11:23:19.335Z,97139.91
2024-04-16T11:24:21.794Z,97134.28
2024-04-16T11:25:38.802Z,97140.03
2024-04-16T11:26:41.354Z,97143.16
2024-04-16T11:27:44.219Z,97149.59
2024-04-16T11:28:46.417Z,97137.22
2024-04-16T11:29:51.380Z,97144.13
2024-04-16T11:30:54.659Z,97146.38
2024-04-16T11:31:59.652Z,97152.97
2024-04-16T11:33:10.578Z,97158.84
2024-04-16T11:34:19.765Z,97158.22
2024-04-16T11:35:22.374Z,97151.34
2024-04-16T11:36:24.524Z,97152.63
2024-04-16T11:37:29.329Z,97146.22
2024-04-16T11:38:31.562Z,97144.78
2024-04-16T11:39:33.746Z,97146.00
2024-04-16T11:40:39.547Z,97143.47
2024-04-16T11:41:45.054Z,97129.13
2024-04-16T11:42:47.225Z,97131.28
2024-04-16T11:43:50.055Z,97148.47
2024-04-16T11:44:55.747Z,97157.84
2024-04-16T11:45:58.637Z,97170.19
2024-04-16T11:47:03.545Z,97174.97
2024-04-16T11:48:11.144Z,97179.28
2024-04-16T11:49:16.051Z,97176.72
2024-04-16T11:50:18.371Z,97191.44
2024-04-16T11:51:20.531Z,97180.53
2024-04-16T11:52:22.671Z,97172.22
2024-04-16T11:53:31.583Z,97166.69
2024-04-16T11:54:36.322Z,97162.19
2024-04-16T11:55:39.370Z,97159.56
2024-04-16T11:56:41.708Z,97144.50
2024-04-16T11:57:46.998Z,97144.97
2024-04-16T11:58:49.310Z,97155.03
2024-04-16T11:59:53.112Z,97158.19
2024-04-16T12:00:55.561Z,97157.03
2024-04-16T12:02:00.798Z,97149.22
2024-04-16T12:03:08.507Z,97164.03
2024-04-16T12:04:11.541Z,97177.94
2024-04-16T12:05:13.858Z,97184.34
2024-04-16T12:06:18.834Z,97181.53
2024-04-16T12:07:21.866Z,97176.31
2024-04-16T12:08:24.761Z,97165.75
2024-04-16T12:09:27.150Z,97174.31
2024-04-16T12:10:34.407Z,97177.16
2024-04-16T12:11:36.835Z,97176.06
2024-04-16T12:12:39.175Z,97172.00
2024-04-16T12:13:41.601Z,97149.16
2024-04-16T12:14:47.109Z,97140.03
2024-04-16T12:15:49.395Z,97144.00
2024-04-16T12:16:51.998Z,97139.13
2024-04-16T12:17:54.369Z,97131.47
2024-04-16T12:19:01.925Z,97142.06
2024-04-16T12:20:05.710Z,97141.41
2024-04-16T12:21:08.803Z,97145.38
2024-04-16T12:22:13.598Z,97136.38
2024-04-16T12:23:15.773Z,97141.75
2024-04-16T12:24:18.024Z,97147.06
2024-04-16T12:25:20.077Z,97153.41
2024-04-16T12:26:25.262Z,97140.88
2024-04-16T12:27:28.818Z,97132.16
2024-04-16T12:28:31.084Z,97125.41
2024-04-16T12:29:33.388Z,97114.75
2024-04-16T12:30:38.173Z,97109.25
2024-04-16T12:31:40.332Z,97105.44
2024-04-16T12:32:44.445Z,97109.06
2024-04-16T12:33:52.232Z,97121.16
2024-04-16T12:34:57.196Z,97108.50
2024-04-16T12:35:59.602Z,97102.56
2024-04-16T12:37:02.537Z,97096.31
2024-04-16T12:38:08.485Z,97105.50
2024-04-16T12:39:13.993Z,97095.66
2024-04-16T12:40:18.032Z,97100.09
2024-04-16T12:41:20.146Z,97097.03
2024-04-16T12:42:25.204Z,97084.66
2024-04-16T12:43:27.665Z,97093.25
2024-04-16T12:44:29.831Z,97090.81
2024-04-16T12:45:32.157Z,97088.91